createdAt,value
2022-10-24T00:01:49.830Z,100060.47
2022-10-24T00:04:19.521Z,100060.84
2022-10-24T00:06:47.975Z,100056.09
2022-10-24T00:09:17.834Z,100059.34
2022-10-24T00:11:46.475Z,100057.38
2022-10-24T00:14:14.959Z,100057.00
2022-10-24T00:16:44.611Z,100059.16
2022-10-24T00:19:12.649Z,100063.09
2022-10-24T00:21:44.477Z,100050.19
2022-10-24T00:24:13.899Z,100054.19
2022-10-24T00:26:42.950Z,100055.06
2022-10-24T00:29:12.433Z,100054.06
2022-10-24T00:31:42.244Z,100048.19
2022-10-24T00:34:11.824Z,100052.06
2022-10-24T00:36:40.302Z,100053.72
2022-10-24T00:39:09.821Z,100053.19
2022-10-24T00:41:42.688Z,100048.53
2022-10-24T00:44:20.863Z,100046.91
2022-10-24T00:46:54.210Z,100040.91
2022-10-24T00:49:28.803Z,100030.22
2022-10-24T00:52:03.335Z,100035.81
2022-10-24T00:54:33.474Z,100041.25
2022-10-24T00:57:07.576Z,100044.19
2022-10-24T00:59:37.982Z,100050.28
2022-10-24T01:02:06.154Z,100046.34
2022-10-24T01:04:34.685Z,100041.56
2022-10-24T01:07:16.373Z,100045.22
2022-10-24T01:10:01.256Z,100046.34
2022-10-24T01:12:40.306Z,100045.63
2022-10-24T01:15:16.817Z,100045.13
2022-10-24T01:17:57.345Z,100045.75
2022-10-24T01:20:49.192Z,100042.09
2022-10-24T01:24:01.790Z,100035.50
2022-10-24T01:26:52.182Z,100030.84
2022-10-24T01:29:33.615Z,100036.91
2022-10-24T01:32:08.585Z,100036.72
2022-10-24T01:34:43.668Z,100027.72
2022-10-24T01:37:19.131Z,100019.34
2022-10-24T01:39:51.300Z,100012.03
2022-10-24T01:42:24.057Z,100013.25
2022-10-24T01:44:57.589Z,100008.25
2022-10-24T01:47:29.559Z,100009.63
2022-10-24T01:50:00.241Z,99998.78
2022-10-24T01:52:32.515Z,99996.13
2022-10-24T01:55:01.365Z,99990.94
2022-10-24T01:57:30.677Z,99993.59
2022-10-24T02:00:01.129Z,100001.25
2022-10-24T02:02:35.553Z,99997.25
2022-10-24T02:05:11.386Z,99994.06
2022-10-24T02:07:42.668Z,99993.59
2022-10-24T02:10:16.548Z,99999.19
2022-10-24T02:12:50.245Z,99991.78
2022-10-24T02:15:25.213Z,100000.78
2022-10-24T02:17:55.499Z,100000.78
2022-10-24T02:20:30.512Z,100001.03
2022-10-24T02:23:05.486Z,99991.47
2022-10-24T02:25:38.092Z,100000.81
2022-10-24T02:28:09.405Z,100014.44
2022-10-24T02:30:44.860Z,100007.91
2022-10-24T02:33:14.219Z,100003.19
2022-10-24T02:35:45.462Z,100006.91
2022-10-24T02:38:18.349Z,100006.97
2022-10-24T02:40:50.310Z,100000.25
2022-10-24T02:43:22.017Z,100002.78
2022-10-24T02:45:54.565Z,100005.13
2022-10-24T02:48:29.740Z,99996.97
2022-10-24T02:50:59.114Z,100001.38
2022-10-24T02:53:27.559Z,99994.78
2022-10-24T02:55:56.182Z,99993.69
2022-10-24T02:58:24.418Z,100000.94
2022-10-24T03:00:54.605Z,99995.34
2022-10-24T03:03:23.392Z,99987.94
2022-10-24T03:05:51.808Z,99986.09
2022-10-24T03:08:20.110Z,99981.06
2022-10-24T03:10:48.355Z,99976.53
2022-10-24T03:13:18.317Z,99976.16
2022-10-24T03:18:17.630Z,99989.00
2022-10-24T03:20:46.653Z,99998.22
2022-10-24T03:23:16.558Z,99994.13
2022-10-24T03:25:45.208Z,99991.06
2022-10-24T03:28:13.606Z,100003.31
2022-10-24T03:30:41.982Z,100011.09
2022-10-24T03:33:10.316Z,100012.69
2022-10-24T03:35:40.478Z,100017.06
2022-10-24T03:38:08.601Z,100019.25
2022-10-24T03:40:37.662Z,100025.22
2022-10-24T03:43:06.319Z,100026.94
2022-10-24T03:45:34.554Z,100023.56
2022-10-24T03:48:02.783Z,100026.84
2022-10-24T03:50:31.278Z,100028.19
2022-10-24T03:53:01.613Z,100019.59
2022-10-24T03:55:30.435Z,100022.88
2022-10-24T03:57:58.881Z,100017.06
2022-10-24T04:00:28.956Z,100014.75
2022-10-24T04:02:57.731Z,100019.16
2022-10-24T04:05:26.015Z,100015.88
2022-10-24T04:07:54.308Z,100015.75
2022-10-24T04:10:24.615Z,100026.94
2022-10-24T04:12:52.934Z,100028.41
2022-10-24T04:15:22.052Z,100017.81
2022-10-24T04:17:50.356Z,100015.78
2022-10-24T04:20:20.519Z,100019.06
2022-10-24T04:22:49.299Z,100019.31
2022-10-24T04:25:18.892Z,100027.59
2022-10-24T04:27:48.622Z,100027.38
2022-10-24T04:30:17.621Z,100020.94
2022-10-24T04:32:46.393Z,100025.91
2022-10-24T04:35:14.941Z,100034.53
2022-10-24T04:37:43.132Z,100030.25
2022-10-24T04:40:11.926Z,100041.16
2022-10-24T04:42:41.272Z,100042.03
2022-10-24T04:45:12.572Z,100041.78
2022-10-24T04:47:40.922Z,100027.56
2022-10-24T04:50:09.955Z,100028.03
2022-10-24T04:52:38.235Z,100022.19
2022-10-24T04:55:07.116Z,100021.94
2022-10-24T04:57:37.771Z,100014.16
2022-10-24T05:00:07.475Z,100014.63
2022-10-24T05:02:37.568Z,100010.13
2022-10-24T05:05:06.996Z,100002.00
2022-10-24T05:07:35.752Z,100012.47
2022-10-24T05:10:04.651Z,100012.69
2022-10-24T05:12:33.388Z,100017.28
2022-10-24T05:15:01.988Z,100013.88
2022-10-24T05:17:31.196Z,100015.56
2022-10-24T05:20:00.762Z,100014.81
2022-10-24T05:22:29.034Z,100019.91
2022-10-24T05:24:58.565Z,100024.72
2022-10-24T05:27:27.026Z,100026.84
2022-10-24T05:29:56.100Z,100020.28
2022-10-24T05:32:25.553Z,100030.19
2022-10-24T05:34:54.007Z,100027.53
2022-10-24T05:37:23.951Z,100043.31
2022-10-24T05:39:52.886Z,100037.59
2022-10-24T05:42:22.129Z,100037.31
2022-10-24T05:44:51.280Z,100043.91
2022-10-24T05:47:19.574Z,100042.75
2022-10-24T05:49:47.901Z,100046.97
2022-10-24T05:52:16.353Z,100050.41
2022-10-24T05:54:55.721Z,100057.16
2022-10-24T05:57:34.506Z,100061.44
2022-10-24T06:00:07.344Z,100067.88
2022-10-24T06:02:40.063Z,100069.00
2022-10-24T06:05:09.561Z,100065.59
2022-10-24T06:07:38.208Z,100071.13
2022-10-24T06:10:09.146Z,100082.22
2022-10-24T06:12:37.432Z,100089.56
2022-10-24T06:15:08.922Z,100086.91
2022-10-24T06:17:37.368Z,100088.53
2022-10-24T06:20:06.599Z,100086.25
2022-10-24T06:22:34.813Z,100086.13
2022-10-24T06:25:03.148Z,100091.38
2022-10-24T06:27:32.785Z,100101.44
2022-10-24T06:30:00.825Z,100091.84
2022-10-24T06:32:29.012Z,100095.72
2022-10-24T06:34:57.477Z,100094.41
2022-10-24T06:37:25.537Z,100094.53
2022-10-24T06:39:53.749Z,100093.91
2022-10-24T06:42:22.488Z,100097.81
2022-10-24T06:44:52.578Z,100104.75
2022-10-24T06:47:21.176Z,100110.97
2022-10-24T06:49:49.345Z,100114.72
2022-10-24T06:52:17.612Z,100109.63
2022-10-24T06:54:46.052Z,100111.34
2022-10-24T06:57:14.218Z,100105.25
2022-10-24T06:59:42.771Z,100103.03
2022-10-24T07:02:14.470Z,100101.09
2022-10-24T07:04:43.030Z,100110.59
2022-10-24T07:07:15.979Z,100114.38
2022-10-24T07:09:44.790Z,100115.22
2022-10-24T07:12:15.575Z,100119.72
2022-10-24T07:14:44.027Z,100126.44
2022-10-24T07:17:14.962Z,100136.66
2022-10-24T07:19:43.440Z,100138.59
2022-10-24T07:22:12.375Z,100132.50
2022-10-24T07:24:41.021Z,100128.00
2022-10-24T07:27:09.354Z,100122.03
2022-10-24T07:29:40.015Z,100131.66
2022-10-24T07:32:08.933Z,100138.63
2022-10-24T07:34:40.255Z,100138.13
2022-10-24T07:37:08.417Z,100139.09
2022-10-24T07:39:40.560Z,100147.88
2022-10-24T07:42:09.680Z,100136.03
2022-10-24T07:44:38.162Z,100144.69
2022-10-24T07:47:09.304Z,100136.56
2022-10-24T07:49:39.720Z,100141.28
2022-10-24T07:52:07.958Z,100141.53
2022-10-24T07:54:37.480Z,100151.41
2022-10-24T07:57:06.512Z,100148.59
2022-10-24T07:59:42.194Z,100158.72
2022-10-24T08:02:12.396Z,100146.88
2022-10-24T08:04:42.482Z,100144.94
2022-10-24T08:07:14.122Z,100136.19
2022-10-24T08:09:44.342Z,100135.56
2022-10-24T08:12:14.698Z,100136.78
2022-10-24T08:14:43.923Z,100132.03
2022-10-24T08:17:12.449Z,100128.47
2022-10-24T08:19:44.095Z,100136.03
2022-10-24T08:22:13.411Z,100138.84
2022-10-24T08:24:43.539Z,100131.78
2022-10-24T08:27:12.466Z,100135.19
2022-10-24T08:29:42.052Z,100127.28
2022-10-24T08:32:10.265Z,100121.41
2022-10-24T08:34:39.270Z,100129.56
2022-10-24T08:37:08.982Z,100127.41
2022-10-24T08:39:39.135Z,100131.28
2022-10-24T08:42:12.553Z,100131.66
2022-10-24T08:44:43.594Z,100121.44
2022-10-24T08:47:23.233Z,100123.25
2022-10-24T08:49:53.028Z,100121.22
2022-10-24T08:52:31.880Z,100118.75
2022-10-24T08:55:07.454Z,100128.97
2022-10-24T08:57:38.991Z,100127.41
2022-10-24T09:00:17.155Z,100133.22
2022-10-24T09:02:53.241Z,100133.97
2022-10-24T09:05:26.035Z,100126.78
2022-10-24T09:08:02.511Z,100121.56
2022-10-24T09:10:39.324Z,100121.56
2022-10-24T09:13:14.272Z,100110.22
2022-10-24T09:15:44.870Z,100110.34
2022-10-24T09:18:20.458Z,100109.34
2022-10-24T09:20:50.456Z,100115.31
2022-10-24T09:23:21.435Z,100117.34
2022-10-24T09:25:52.420Z,100121.91
2022-10-24T09:28:22.119Z,100130.72
2022-10-24T09:30:51.532Z,100128.94
2022-10-24T09:33:25.891Z,100133.88
2022-10-24T09:35:56.527Z,100132.63
2022-10-24T09:38:33.380Z,100132.06
2022-10-24T09:41:07.007Z,100147.25
2022-10-24T09:43:40.621Z,100147.72
2022-10-24T09:46:13.826Z,100145.22
2022-10-24T09:48:55.281Z,100148.66
2022-10-24T09:51:33.010Z,100145.97
2022-10-24T09:54:24.823Z,100153.34
2022-10-24T09:56:58.404Z,100155.66
2022-10-24T09:59:35.068Z,100166.78
2022-10-24T10:02:20.474Z,100168.78
2022-10-24T10:04:50.847Z,100167.22
2022-10-24T10:07:23.348Z,100173.75
2022-10-24T10:09:56.767Z,100174.00
2022-10-24T10:12:34.614Z,100181.25
2022-10-24T10:15:17.969Z,100175.84
2022-10-24T10:17:50.971Z,100180.31
2022-10-24T10:20:26.074Z,100177.06
2022-10-24T10:22:54.874Z,100181.25
2022-10-24T10:25:32.922Z,100194.75
2022-10-24T10:28:03.118Z,100181.97
2022-10-24T10:30:33.387Z,100187.59
2022-10-24T10:33:20.147Z,100184.56
2022-10-24T10:35:54.986Z,100190.81
2022-10-24T10:38:40.552Z,100184.78
2022-10-24T10:41:19.687Z,100190.56
2022-10-24T10:44:00.116Z,100187.41
2022-10-24T10:46:33.491Z,100184.38
2022-10-24T10:49:15.827Z,100177.91
2022-10-24T10:51:48.933Z,100185.00
2022-10-24T10:54:31.562Z,100187.19
2022-10-24T10:57:05.160Z,100175.13
2022-10-24T10:59:43.962Z,100176.06
2022-10-24T11:02:27.439Z,100171.25
2022-10-24T11:05:05.603Z,100177.06
2022-10-24T11:07:41.892Z,100179.25
2022-10-24T11:10:16.153Z,100183.22
2022-10-24T11:12:48.687Z,100181.84
2022-10-24T11:15:21.383Z,100179.00
2022-10-24T11:17:54.422Z,100180.25
2022-10-24T11:20:27.723Z,100175.34
2022-10-24T11:23:02.071Z,100177.78
2022-10-24T11:25:36.304Z,100182.13
2022-10-24T11:28:10.245Z,100166.69
2022-10-24T11:30:46.520Z,100175.78
2022-10-24T11:33:20.028Z,100169.59
2022-10-24T11:36:13.747Z,100163.00
2022-10-24T11:38:47.319Z,100164.97
2022-10-24T11:41:42.245Z,100154.44
2022-10-24T11:44:35.815Z,100157.97
2022-10-24T11:47:15.462Z,100155.19
2022-10-24T11:49:48.743Z,100149.53
2022-10-24T11:52:23.077Z,100151.31
2022-10-24T11:54:57.139Z,100151.50
2022-10-24T11:57:29.628Z,100155.66
2022-10-24T12:00:00.317Z,100159.34
2022-10-24T12:02:57.550Z,100159.63
2022-10-24T12:05:49.379Z,100151.81
2022-10-24T12:08:43.862Z,100148.13
2022-10-24T12:11:30.301Z,100138.16
2022-10-24T12:14:10.717Z,100138.63
2022-10-24T12:16:53.783Z,100145.63
2022-10-24T12:19:23.503Z,100130.13
2022-10-24T12:21:55.528Z,100124.34
2022-10-24T12:24:30.203Z,100122.81
2022-10-24T12:27:02.627Z,100131.63
2022-10-24T12:29:34.034Z,100128.78
2022-10-24T12:32:26.156Z,100119.44
2022-10-24T12:35:25.255Z,100123.06
2022-10-24T12:37:47.549Z,100124.31
2022-10-24T12:40:55.626Z,100127.53
2022-10-24T12:43:31.986Z,100123.97
2022-10-24T12:46:01.482Z,100112.34
2022-10-24T12:48:44.062Z,100122.31
2022-10-24T12:51:30.496Z,100120.53
2022-10-24T12:54:15.731Z,100114.38
2022-10-24T12:57:34.240Z,100110.00
2022-10-24T13:00:03.495Z,100112.63
2022-10-24T13:03:07.634Z,100107.44
2022-10-24T13:05:53.963Z,100101.44
2022-10-24T13:08:37.113Z,100096.31
2022-10-24T13:11:22.393Z,100106.94
2022-10-24T13:14:03.214Z,100120.31
2022-10-24T13:16:43.130Z,100111.75
2022-10-24T13:19:17.438Z,100111.06
2022-10-24T13:21:52.481Z,100108.78
2022-10-24T13:24:30.158Z,100107.06
2022-10-24T13:27:31.208Z,100099.94
2022-10-24T13:30:25.051Z,100112.75
2022-10-24T13:33:31.765Z,100102.47
2022-10-24T13:36:15.162Z,100104.03
2022-10-24T13:38:50.247Z,100109.13
2022-10-24T13:41:26.782Z,100109.03
2022-10-24T13:44:01.336Z,100120.69
2022-10-24T13:46:36.940Z,100110.16
2022-10-24T13:49:07.797Z,100109.72
2022-10-24T13:51:43.553Z,100112.91
2022-10-24T13:54:19.195Z,100113.53
2022-10-24T13:56:48.662Z,100111.00
2022-10-24T13:59:34.099Z,100110.16
2022-10-24T14:02:07.301Z,100122.22
2022-10-24T14:04:37.087Z,100123.41
2022-10-24T14:07:07.901Z,100123.59
2022-10-24T14:09:44.022Z,100128.28
2022-10-24T14:12:19.877Z,100131.34
2022-10-24T14:14:50.665Z,100132.50
2022-10-24T14:17:23.622Z,100146.59
2022-10-24T14:19:55.871Z,100145.19
2022-10-24T14:22:29.360Z,100149.66
2022-10-24T14:24:58.883Z,100140.19
2022-10-24T14:27:27.750Z,100141.13
2022-10-24T14:30:18.699Z,100150.47
2022-10-24T14:32:48.334Z,100157.38
2022-10-24T14:35:17.623Z,100152.00
2022-10-24T14:37:46.414Z,100155.03
2022-10-24T14:40:19.044Z,100148.41
2022-10-24T14:42:49.253Z,100152.94
2022-10-24T14:45:25.504Z,100146.22
2022-10-24T14:47:54.899Z,100141.06
2022-10-24T14:50:41.957Z,100144.63
2022-10-24T14:53:24.175Z,100149.88
2022-10-24T14:55:57.864Z,100161.59
2022-10-24T14:58:31.103Z,100154.72
2022-10-24T15:01:00.921Z,100151.59
2022-10-24T15:03:30.599Z,100153.91
2022-10-24T15:06:12.650Z,100148.78
2022-10-24T15:09:04.828Z,100151.72
2022-10-24T15:11:40.194Z,100149.00
2022-10-24T15:14:33.289Z,100151.50
2022-10-24T15:17:07.010Z,100159.13
2022-10-24T15:19:39.736Z,100155.28
2022-10-24T15:22:16.451Z,100149.66
2022-10-24T15:24:45.728Z,100152.72
2022-10-24T15:27:28.813Z,100147.81
2022-10-24T15:29:57.520Z,100146.72
2022-10-24T15:32:26.502Z,100152.78
2022-10-24T15:34:57.286Z,100164.66
2022-10-24T15:37:28.536Z,100157.69
2022-10-24T15:39:57.040Z,100169.59
2022-10-24T15:42:27.084Z,100163.88
2022-10-24T15:44:55.630Z,100161.69
2022-10-24T15:47:24.626Z,100163.03
2022-10-24T15:49:53.339Z,100165.41
2022-10-24T15:52:23.018Z,100176.97
2022-10-24T15:54:51.188Z,100171.84
2022-10-24T15:57:19.879Z,100170.69
2022-10-24T15:59:49.767Z,100172.09
2022-10-24T16:02:22.815Z,100163.97
2022-10-24T16:04:51.728Z,100175.63
2022-10-24T16:07:20.284Z,100171.66
2022-10-24T16:09:48.794Z,100189.00
2022-10-24T16:12:17.111Z,100185.16
2022-10-24T16:14:45.401Z,100176.06
2022-10-24T16:17:14.963Z,100188.66
2022-10-24T16:19:43.076Z,100193.69
2022-10-24T16:22:11.878Z,100196.75
2022-10-24T16:24:39.969Z,100201.41
2022-10-24T16:27:08.097Z,100207.25
2022-10-24T16:29:36.334Z,100209.00
2022-10-24T16:32:04.531Z,100214.97
2022-10-24T16:34:33.997Z,100216.56
2022-10-24T16:37:02.551Z,100216.81
2022-10-24T16:39:31.137Z,100221.81
2022-10-24T16:42:01.785Z,100223.38
2022-10-24T16:44:31.647Z,100226.03
2022-10-24T16:46:59.804Z,100228.47
2022-10-24T16:49:28.388Z,100218.97
2022-10-24T16:51:57.954Z,100231.41
2022-10-24T16:54:28.211Z,100231.28
2022-10-24T16:56:56.259Z,100235.28
2022-10-24T16:59:24.359Z,100230.78
2022-10-24T17:01:52.834Z,100221.13
2022-10-24T17:04:21.214Z,100233.69
2022-10-24T17:06:49.585Z,100229.28
2022-10-24T17:09:19.019Z,100242.41
2022-10-24T17:11:48.341Z,100235.97
2022-10-24T17:14:16.721Z,100242.63
2022-10-24T17:16:45.132Z,100233.25
2022-10-24T17:19:17.409Z,100238.75
2022-10-24T17:21:47.823Z,100241.88
2022-10-24T17:24:17.368Z,100246.97
2022-10-24T17:26:47.960Z,100242.94
2022-10-24T17:29:18.899Z,100250.66
2022-10-24T17:31:47.382Z,100253.38
2022-10-24T17:34:15.471Z,100263.16
2022-10-24T17:36:47.225Z,100263.69
2022-10-24T17:39:15.778Z,100263.47
2022-10-24T17:41:45.161Z,100269.00
2022-10-24T17:44:16.162Z,100252.88
2022-10-24T17:46:44.431Z,100266.16
2022-10-24T17:49:16.470Z,100275.59
2022-10-24T17:51:48.381Z,100275.78
2022-10-24T17:54:16.783Z,100278.00
2022-10-24T17:56:45.271Z,100276.72
2022-10-24T17:59:13.464Z,100272.16
2022-10-24T18:01:43.284Z,100286.13
2022-10-24T18:04:11.448Z,100289.34
2022-10-24T18:06:42.897Z,100292.00
2022-10-24T18:09:11.702Z,100294.22
2022-10-24T18:11:40.692Z,100294.50
2022-10-24T18:14:08.680Z,100310.06
2022-10-24T18:16:38.324Z,100305.53
2022-10-24T18:19:08.082Z,100313.19
2022-10-24T18:21:36.803Z,100312.56
2022-10-24T18:24:06.564Z,100304.94
2022-10-24T18:26:34.655Z,100305.69
2022-10-24T18:29:02.823Z,100317.44
2022-10-24T18:31:31.382Z,100308.63
2022-10-24T18:34:04.930Z,100311.25
2022-10-24T18:36:37.867Z,100305.94
2022-10-24T18:39:06.848Z,100317.69
2022-10-24T18:41:39.070Z,100317.69
2022-10-24T18:44:17.607Z,100309.31
2022-10-24T18:46:46.515Z,100316.38
2022-10-24T18:49:16.383Z,100310.59
2022-10-24T18:51:50.640Z,100310.06
2022-10-24T18:54:20.826Z,100312.13
2022-10-24T18:56:49.397Z,100310.38
2022-10-24T18:59:18.841Z,100312.13
2022-10-24T19:01:54.371Z,100309.03
2022-10-24T19:04:23.656Z,100321.97
2022-10-24T19:06:56.249Z,100322.69
2022-10-24T19:09:25.398Z,100323.75
2022-10-24T19:11:53.869Z,100329.47
2022-10-24T19:14:22.055Z,100336.81
2022-10-24T19:16:51.526Z,100343.44
2022-10-24T19:19:23.861Z,100336.97
2022-10-24T19:21:53.392Z,100325.53
2022-10-24T19:24:21.548Z,100333.03
2022-10-24T19:26:50.023Z,100331.53
2022-10-24T19:29:18.435Z,100344.47
2022-10-24T19:31:46.835Z,100351.94
2022-10-24T19:34:15.146Z,100341.22
2022-10-24T19:36:43.624Z,100353.00
2022-10-24T19:39:13.223Z,100342.84
2022-10-24T19:41:41.650Z,100347.72
2022-10-24T19:44:09.692Z,100350.78
2022-10-24T19:46:37.684Z,100354.59
2022-10-24T19:49:05.960Z,100351.78
2022-10-24T19:51:35.192Z,100355.47
2022-10-24T19:54:03.431Z,100354.59
2022-10-24T19:56:33.406Z,100351.81
2022-10-24T19:59:01.868Z,100346.97
2022-10-24T20:01:31.919Z,100346.09
2022-10-24T20:04:01.330Z,100350.34
2022-10-24T20:06:29.350Z,100346.09
2022-10-24T20:08:57.473Z,100354.31
2022-10-24T20:11:25.471Z,100367.66
2022-10-24T20:13:56.766Z,100367.41
2022-10-24T20:16:25.474Z,100376.34
2022-10-24T20:18:54.124Z,100376.50
2022-10-24T20:21:22.815Z,100378.97
2022-10-24T20:23:50.865Z,100376.34
2022-10-24T20:26:21.682Z,100391.00
2022-10-24T20:28:51.166Z,100397.91
2022-10-24T20:31:22.098Z,100387.19
2022-10-24T20:33:50.421Z,100388.38
2022-10-24T20:36:20.825Z,100398.97
2022-10-24T20:38:49.035Z,100401.72
2022-10-24T20:41:17.033Z,100400.69
2022-10-24T20:43:45.557Z,100406.97
2022-10-24T20:46:13.844Z,100404.63
2022-10-24T20:48:43.387Z,100413.88
2022-10-24T20:51:12.978Z,100413.53
2022-10-24T20:53:41.859Z,100419.56
2022-10-24T20:56:11.271Z,100422.47
2022-10-24T20:58:40.567Z,100430.06
2022-10-24T21:01:09.474Z,100429.28
2022-10-24T21:03:39.255Z,100431.44
2022-10-24T21:06:16.656Z,100436.38
2022-10-24T21:08:44.859Z,100440.31
2022-10-24T21:11:14.950Z,100455.97
2022-10-24T21:13:43.668Z,100448.19
2022-10-24T21:16:11.875Z,100451.97
2022-10-24T21:18:40.321Z,100454.59
2022-10-24T21:21:11.471Z,100452.22
2022-10-24T21:23:39.873Z,100459.38
2022-10-24T21:26:08.524Z,100462.31
2022-10-24T21:28:36.933Z,100462.31
2022-10-24T21:31:05.800Z,100461.69
2022-10-24T21:33:34.413Z,100471.03
2022-10-24T21:36:05.697Z,100479.03
2022-10-24T21:38:35.149Z,100474.53
2022-10-24T21:41:04.075Z,100476.06
2022-10-24T21:43:33.095Z,100480.09
2022-10-24T21:46:05.455Z,100475.66
2022-10-24T21:48:34.743Z,100474.38
2022-10-24T21:51:03.965Z,100473.06
2022-10-24T21:53:33.587Z,100485.09
2022-10-24T21:56:06.751Z,100482.00
2022-10-24T21:58:35.067Z,100472.25
2022-10-24T22:01:03.330Z,100478.22
2022-10-24T22:03:31.787Z,100477.72
2022-10-24T22:06:00.054Z,100482.81
2022-10-24T22:08:28.655Z,100480.44
2022-10-24T22:10:58.040Z,100493.78
2022-10-24T22:13:28.288Z,100497.03
2022-10-24T22:15:56.811Z,100501.16
2022-10-24T22:18:26.329Z,100503.19
2022-10-24T22:20:54.450Z,100514.59
2022-10-24T22:23:22.569Z,100509.41
2022-10-24T22:25:50.660Z,100515.72
2022-10-24T22:28:19.360Z,100513.28
2022-10-24T22:30:49.634Z,100514.44
2022-10-24T22:33:20.482Z,100525.47
2022-10-24T22:35:50.322Z,100525.94
2022-10-24T22:38:18.751Z,100521.78
2022-10-24T22:40:47.329Z,100533.50
2022-10-24T22:43:15.837Z,100534.41
2022-10-24T22:45:48.840Z,100539.31
2022-10-24T22:48:21.269Z,100544.38
2022-10-24T22:50:53.333Z,100537.69
2022-10-24T22:53:22.399Z,100536.94
2022-10-24T22:56:06.312Z,100546.75
2022-10-24T22:58:34.754Z,100544.38
2022-10-24T23:01:11.836Z,100551.69
2022-10-24T23:03:50.175Z,100541.28
2022-10-24T23:06:21.082Z,100552.88
2022-10-24T23:08:49.135Z,100550.59
2022-10-24T23:11:17.494Z,100556.25
2022-10-24T23:13:45.910Z,100547.81
2022-10-24T23:16:24.523Z,100543.97
2022-10-24T23:18:54.428Z,100543.06
2022-10-24T23:21:27.902Z,100549.91
2022-10-24T23:23:56.360Z,100552.19
2022-10-24T23:26:27.275Z,100557.59
2022-10-24T23:29:00.142Z,100559.72
2022-10-24T23:31:28.633Z,100551.38
2022-10-24T23:33:59.053Z,100560.44
2022-10-24T23:36:29.387Z,100558.22
2022-10-24T23:38:58.788Z,100573.28
2022-10-24T23:41:27.363Z,100570.31
2022-10-24T23:43:55.729Z,100577.19
2022-10-24T23:46:28.047Z,100574.25
2022-10-24T23:49:08.006Z,100576.53
2022-10-24T23:51:39.365Z,100582.09
2022-10-24T23:54:09.886Z,100567.94
2022-10-24T23:56:38.422Z,100577.44
2022-10-24T23:59:06.999Z,100572.66
